^^
Meteo Knjazevac Station Historical Data
Daily Summary for February 10, 2022 Units:  Both    English   Metric
Daily Weekly Monthly Yearly Custom
  High: Low: Average:
Temperature: 42.6 °F /  5.9 °C 39.6 °F /  4.2 °C 41 °F /  5 °C
Dew Point: 42.4 °F /  5.8 °C 39.3 °F /  4.1 °C 40.7 °F /  4.8 °C
Humidity: 99% 99% 99%
Wind Speed: 3.2mph /  5.1km/h - 1.1mph /  1.8km/h
Wind Gust: 4mph /  6.4km/h - -
Wind- - WSW
Pressure: 30.24 in /  1023.9 hPa 30.23 in /  1023.6 hPa -
Precipitation: 0.00 in /  0 mm    
Historical Graphs
 
 
Tabular Data for February 10, 2022
Time Temperature Dew Point Pressure Wind Wind Speed Wind Gust Humidity Rainfall Rate (Hourly) solar Conditions
00:04 39.7 °F /  4.3 °C 39.5 °F /  4.2 °C 30.23in /  1023.6hPa West 3.2mph /  5.1km/h 3mph /  4.8km/h 99% 0.00in /  0mm 0 W/m2
00:09 39.7 °F /  4.3 °C 39.5 °F /  4.2 °C 30.23in /  1023.6hPa West 1.8mph /  2.9km/h 4mph /  6.4km/h 99% 0.00in /  0mm 0 W/m2
00:14 39.7 °F /  4.3 °C 39.5 °F /  4.2 °C 30.23in /  1023.6hPa West 1.7mph /  2.7km/h 2mph /  3.2km/h 99% 0.00in /  0mm 0 W/m2
00:19 39.7 °F /  4.3 °C 39.4 °F /  4.1 °C 30.23in /  1023.6hPa West 1.5mph /  2.4km/h 2mph /  3.2km/h 99% 0.00in /  0mm 0 W/m2
00:24 39.6 °F /  4.2 °C 39.3 °F /  4.1 °C 30.23in /  1023.6hPa WNW 1.4mph /  2.3km/h 2mph /  3.2km/h 99% 0.00in /  0mm 0 W/m2
00:29 39.7 °F /  4.3 °C 39.4 °F /  4.1 °C 30.24in /  1023.9hPa WNW 2.2mph /  3.5km/h 2mph /  3.2km/h 99% 0.00in /  0mm 0 W/m2
00:34 39.7 °F /  4.3 °C 39.5 °F /  4.2 °C 30.23in /  1023.6hPa WNW 2.4mph /  3.9km/h 2mph /  3.2km/h 99% 0.00in /  0mm 0 W/m2
00:39 39.8 °F /  4.3 °C 39.6 °F /  4.2 °C 30.23in /  1023.6hPa West 2.2mph /  3.5km/h 2mph /  3.2km/h 99% 0.00in /  0mm 0 W/m2
00:44 40 °F /  4.4 °C 39.7 °F /  4.3 °C 30.23in /  1023.6hPa West 1.9mph /  3.1km/h 2mph /  3.2km/h 99% 0.00in /  0mm 0 W/m2
00:49 40.1 °F /  4.5 °C 39.8 °F /  4.3 °C 30.23in /  1023.6hPa WNW 2.2mph /  3.5km/h 2mph /  3.2km/h 99% 0.00in /  0mm 0 W/m2
00:54 40.2 °F /  4.6 °C 39.9 °F /  4.4 °C 30.23in /  1023.6hPa NW 1.7mph /  2.7km/h 2mph /  3.2km/h 99% 0.00in /  0mm 0 W/m2
00:59 40.4 °F /  4.7 °C 40.1 °F /  4.5 °C 30.23in /  1023.6hPa NW 0.5mph /  0.8km/h 2mph /  3.2km/h 99% 0.00in /  0mm 0 W/m2
01:04 40.6 °F /  4.8 °C 40.3 °F /  4.6 °C 30.24in /  1023.9hPa Calm   1mph /  1.6km/h 99% 0.00in /  0mm 0 W/m2
01:09 40.7 °F /  4.8 °C 40.5 °F /  4.7 °C 30.24in /  1023.9hPa WNW 0.5mph /  0.8km/h 0.7mph /  1.1km/h 99% 0.00in /  0mm 0 W/m2
01:14 40.8 °F /  4.9 °C 40.6 °F /  4.8 °C 30.24in /  1023.9hPa NW 0.3mph /  0.5km/h 2mph /  3.2km/h 99% 0.00in /  0mm 0 W/m2
01:19 41.1 °F /  5.1 °C 40.8 °F /  4.9 °C 30.24in /  1023.9hPa Calm     99% 0.00in /  0mm 0 W/m2
01:24 41.2 °F /  5.1 °C 40.9 °F /  4.9 °C 30.24in /  1023.9hPa NNW 0.6mph /  1km/h   99% 0.00in /  0mm 0 W/m2
01:29 41.3 °F /  5.2 °C 41 °F /  5 °C 30.24in /  1023.9hPa NE 1mph /  1.6km/h 1mph /  1.6km/h 99% 0.00in /  0mm 0 W/m2
01:34 41.4 °F /  5.2 °C 41.1 °F /  5.1 °C 30.24in /  1023.9hPa ENE 1.1mph /  1.8km/h 1mph /  1.6km/h 99% 0.00in /  0mm 0 W/m2
01:39 41.5 °F /  5.3 °C 41.3 °F /  5.2 °C 30.24in /  1023.9hPa NNE 0.7mph /  1.1km/h 1mph /  1.6km/h 99% 0.00in /  0mm 0 W/m2
01:44 41.5 °F /  5.3 °C 41.3 °F /  5.2 °C 30.24in /  1023.9hPa North 0.8mph /  1.3km/h 2mph /  3.2km/h 99% 0.00in /  0mm 0 W/m2
01:49 41.7 °F /  5.4 °C 41.5 °F /  5.3 °C 30.24in /  1023.9hPa North 0.4mph /  0.6km/h 1mph /  1.6km/h 99% 0.00in /  0mm 0 W/m2
01:54 41.7 °F /  5.4 °C 41.5 °F /  5.3 °C 30.24in /  1023.9hPa NNW 0.8mph /  1.3km/h 2mph /  3.2km/h 99% 0.00in /  0mm 0 W/m2
01:59 41.8 °F /  5.4 °C 41.5 °F /  5.3 °C 30.24in /  1023.9hPa NW 0.9mph /  1.4km/h 2mph /  3.2km/h 99% 0.00in /  0mm 0 W/m2
02:04 41.9 °F /  5.5 °C 41.6 °F /  5.3 °C 30.23in /  1023.6hPa NW 0.4mph /  0.6km/h 1mph /  1.6km/h 99% 0.00in /  0mm 0 W/m2
02:09 42.1 °F /  5.6 °C 41.8 °F /  5.4 °C 30.23in /  1023.6hPa NNE 0.2mph /  0.3km/h 2mph /  3.2km/h 99% 0.00in /  0mm 0 W/m2
02:14 42.2 °F /  5.7 °C 41.9 °F /  5.5 °C 30.23in /  1023.6hPa NNW 0.6mph /  1km/h 1mph /  1.6km/h 99% 0.00in /  0mm 0 W/m2
02:19 42.3 °F /  5.7 °C 42 °F /  5.6 °C 30.23in /  1023.6hPa West 0.2mph /  0.3km/h 1mph /  1.6km/h 99% 0.00in /  0mm 0 W/m2
02:24 42.3 °F /  5.7 °C 42 °F /  5.6 °C 30.23in /  1023.6hPa WNW 1mph /  1.6km/h 1mph /  1.6km/h 99% 0.00in /  0mm 0 W/m2
02:29 42.5 °F /  5.8 °C 42.3 °F /  5.7 °C 30.23in /  1023.6hPa West 0.2mph /  0.3km/h 2mph /  3.2km/h 99% 0.00in /  0mm 0 W/m2
02:34 42.6 °F /  5.9 °C 42.4 °F /  5.8 °C 30.23in /  1023.6hPa SE 0.6mph /  1km/h   99% 0.00in /  0mm 0 W/m2
Knjazevac, Serbia
Compliments of Weather Underground - 2 mb